sensor_id;sensor_type;location;lat;lon;timestamp;P1;durP1;ratioP1;P2;durP2;ratioP2
28192;SDS011;15473;50.840;3.396;2022-10-31T00:00:20;7.22;;;3.30;;
28192;SDS011;15473;50.840;3.396;2022-10-31T00:02:51;5.58;;;3.25;;
28192;SDS011;15473;50.840;3.396;2022-10-31T00:05:21;5.53;;;3.40;;
28192;SDS011;15473;50.840;3.396;2022-10-31T00:07:57;5.03;;;3.15;;
28192;SDS011;15473;50.840;3.396;2022-10-31T00:10:27;7.62;;;3.50;;
28192;SDS011;15473;50.840;3.396;2022-10-31T00:13:03;4.92;;;3.25;;
28192;SDS011;15473;50.840;3.396;2022-10-31T00:15:40;5.70;;;3.50;;
28192;SDS011;15473;50.840;3.396;2022-10-31T00:18:11;4.80;;;3.05;;
28192;SDS011;15473;50.840;3.396;2022-10-31T00:20:45;4.50;;;3.37;;
28192;SDS011;15473;50.840;3.396;2022-10-31T00:23:19;5.87;;;3.45;;
28192;SDS011;15473;50.840;3.396;2022-10-31T00:25:59;6.12;;;4.03;;
28192;SDS011;15473;50.840;3.396;2022-10-31T00:28:33;8.15;;;4.17;;
28192;SDS011;15473;50.840;3.396;2022-10-31T00:31:11;6.83;;;3.62;;
28192;SDS011;15473;50.840;3.396;2022-10-31T00:33:42;6.65;;;3.17;;
28192;SDS011;15473;50.840;3.396;2022-10-31T00:36:16;5.80;;;3.58;;
28192;SDS011;15473;50.840;3.396;2022-10-31T00:38:48;9.18;;;4.12;;
28192;SDS011;15473;50.840;3.396;2022-10-31T00:41:24;4.15;;;3.52;;
28192;SDS011;15473;50.840;3.396;2022-10-31T00:43:54;6.85;;;3.20;;
28192;SDS011;15473;50.840;3.396;2022-10-31T00:46:31;5.40;;;3.50;;
28192;SDS011;15473;50.840;3.396;2022-10-31T00:49:05;4.87;;;3.47;;
28192;SDS011;15473;50.840;3.396;2022-10-31T00:51:35;5.55;;;3.33;;
28192;SDS011;15473;50.840;3.396;2022-10-31T00:54:06;6.87;;;3.45;;
28192;SDS011;15473;50.840;3.396;2022-10-31T00:56:39;6.58;;;3.77;;
28192;SDS011;15473;50.840;3.396;2022-10-31T00:59:09;6.87;;;3.60;;
28192;SDS011;15473;50.840;3.396;2022-10-31T01:01:39;5.55;;;3.95;;
28192;SDS011;15473;50.840;3.396;2022-10-31T01:04:16;7.45;;;4.40;;
28192;SDS011;15473;50.840;3.396;2022-10-31T01:06:53;5.50;;;3.47;;
28192;SDS011;15473;50.840;3.396;2022-10-31T01:09:23;6.25;;;4.12;;
28192;SDS011;15473;50.840;3.396;2022-10-31T01:12:00;7.17;;;3.98;;
28192;SDS011;15473;50.840;3.396;2022-10-31T01:14:32;6.58;;;3.30;;
28192;SDS011;15473;50.840;3.396;2022-10-31T01:17:06;6.85;;;3.77;;
28192;SDS011;15473;50.840;3.396;2022-10-31T01:19:36;7.72;;;3.92;;
28192;SDS011;15473;50.840;3.396;2022-10-31T01:22:12;7.03;;;4.50;;
28192;SDS011;15473;50.840;3.396;2022-10-31T01:27:32;9.15;;;4.42;;
28192;SDS011;15473;50.840;3.396;2022-10-31T01:30:21;7.10;;;4.33;;
28192;SDS011;15473;50.840;3.396;2022-10-31T01:32:51;6.40;;;3.37;;
28192;SDS011;15473;50.840;3.396;2022-10-31T01:35:21;5.97;;;4.03;;
28192;SDS011;15473;50.840;3.396;2022-10-31T01:37:51;5.85;;;3.77;;
28192;SDS011;15473;50.840;3.396;2022-10-31T01:40:22;5.40;;;4.08;;
28192;SDS011;15473;50.840;3.396;2022-10-31T01:42:52;8.83;;;4.58;;
28192;SDS011;15473;50.840;3.396;2022-10-31T01:45:22;10.25;;;4.70;;
28192;SDS011;15473;50.840;3.396;2022-10-31T01:47:53;7.95;;;4.17;;
28192;SDS011;15473;50.840;3.396;2022-10-31T01:50:31;10.95;;;4.55;;
28192;SDS011;15473;50.840;3.396;2022-10-31T01:53:09;7.50;;;4.47;;
28192;SDS011;15473;50.840;3.396;2022-10-31T01:55:48;11.28;;;6.35;;
28192;SDS011;15473;50.840;3.396;2022-10-31T01:58:23;8.13;;;5.12;;
28192;SDS011;15473;50.840;3.396;2022-10-31T02:00:55;6.75;;;3.87;;
28192;SDS011;15473;50.840;3.396;2022-10-31T02:03:28;8.00;;;4.45;;
28192;SDS011;15473;50.840;3.396;2022-10-31T02:05:59;8.50;;;4.33;;
28192;SDS011;15473;50.840;3.396;2022-10-31T02:08:30;8.55;;;4.42;;
28192;SDS011;15473;50.840;3.396;2022-10-31T02:11:02;7.05;;;4.47;;
28192;SDS011;15473;50.840;3.396;2022-10-31T02:13:33;8.85;;;4.33;;
28192;SDS011;15473;50.840;3.396;2022-10-31T02:16:09;8.65;;;4.47;;
28192;SDS011;15473;50.840;3.396;2022-10-31T02:18:41;7.45;;;4.62;;
28192;SDS011;15473;50.840;3.396;2022-10-31T02:21:19;7.12;;;4.33;;
28192;SDS011;15473;50.840;3.396;2022-10-31T02:47:17;14.47;;;8.40;;
28192;SDS011;15473;50.840;3.396;2022-10-31T02:52:37;13.45;;;5.92;;
28192;SDS011;15473;50.840;3.396;2022-10-31T02:58:07;8.35;;;4.53;;
28192;SDS011;15473;50.840;3.396;2022-10-31T03:03:48;9.28;;;4.97;;
28192;SDS011;15473;50.840;3.396;2022-10-31T03:12:05;8.30;;;4.50;;
28192;SDS011;15473;50.840;3.396;2022-10-31T03:15:10;7.33;;;4.90;;
28192;SDS011;15473;50.840;3.396;2022-10-31T03:20:40;8.85;;;4.80;;
28192;SDS011;15473;50.840;3.396;2022-10-31T03:23:08;6.97;;;4.65;;
28192;SDS011;15473;50.840;3.396;2022-10-31T03:25:43;9.93;;;5.55;;
28192;SDS011;15473;50.840;3.396;2022-10-31T03:28:16;11.90;;;4.67;;
28192;SDS011;15473;50.840;3.396;2022-10-31T03:30:54;14.15;;;4.85;;
28192;SDS011;15473;50.840;3.396;2022-10-31T03:33:35;9.53;;;5.62;;
28192;SDS011;15473;50.840;3.396;2022-10-31T03:36:11;10.00;;;5.40;;
28192;SDS011;15473;50.840;3.396;2022-10-31T03:38:50;11.05;;;5.05;;
28192;SDS011;15473;50.840;3.396;2022-10-31T03:41:25;6.78;;;4.70;;
28192;SDS011;15473;50.840;3.396;2022-10-31T03:43:59;8.93;;;5.17;;
28192;SDS011;15473;50.840;3.396;2022-10-31T03:46:48;10.65;;;4.80;;
28192;SDS011;15473;50.840;3.396;2022-10-31T03:49:26;10.25;;;5.00;;
28192;SDS011;15473;50.840;3.396;2022-10-31T03:52:10;9.80;;;5.37;;
28192;SDS011;15473;50.840;3.396;2022-10-31T03:54:42;8.28;;;5.30;;
28192;SDS011;15473;50.840;3.396;2022-10-31T04:02:55;9.28;;;4.50;;
28192;SDS011;15473;50.840;3.396;2022-10-31T04:05:28;10.80;;;4.53;;
28192;SDS011;15473;50.840;3.396;2022-10-31T04:08:08;8.73;;;5.10;;
28192;SDS011;15473;50.840;3.396;2022-10-31T04:10:40;8.50;;;4.40;;
28192;SDS011;15473;50.840;3.396;2022-10-31T04:13:13;8.83;;;5.10;;
28192;SDS011;15473;50.840;3.396;2022-10-31T04:15:47;12.30;;;5.47;;
28192;SDS011;15473;50.840;3.396;2022-10-31T04:18:24;7.00;;;4.45;;
28192;SDS011;15473;50.840;3.396;2022-10-31T04:21:04;10.55;;;4.35;;
28192;SDS011;15473;50.840;3.396;2022-10-31T04:23:41;8.65;;;5.30;;
28192;SDS011;15473;50.840;3.396;2022-10-31T04:26:17;6.80;;;4.42;;
28192;SDS011;15473;50.840;3.396;2022-10-31T04:28:47;7.45;;;4.75;;
28192;SDS011;15473;50.840;3.396;2022-10-31T04:31:24;7.15;;;4.20;;
28192;SDS011;15473;50.840;3.396;2022-10-31T04:33:54;7.05;;;3.98;;
28192;SDS011;15473;50.840;3.396;2022-10-31T04:36:28;7.60;;;4.50;;
28192;SDS011;15473;50.840;3.396;2022-10-31T04:39:04;8.13;;;4.85;;
28192;SDS011;15473;50.840;3.396;2022-10-31T04:41:36;8.83;;;4.62;;
28192;SDS011;15473;50.840;3.396;2022-10-31T04:44:06;7.47;;;4.70;;
28192;SDS011;15473;50.840;3.396;2022-10-31T04:46:40;5.70;;;4.00;;
28192;SDS011;15473;50.840;3.396;2022-10-31T04:49:13;5.92;;;3.08;;
28192;SDS011;15473;50.840;3.396;2022-10-31T04:51:43;10.08;;;4.22;;
28192;SDS011;15473;50.840;3.396;2022-10-31T04:54:19;6.92;;;3.52;;
28192;SDS011;15473;50.840;3.396;2022-10-31T04:59:39;6.67;;;4.65;;
28192;SDS011;15473;50.840;3.396;2022-10-31T05:02:09;5.65;;;3.75;;
28192;SDS011;15473;50.840;3.396;2022-10-31T05:04:40;6.05;;;4.12;;
28192;SDS011;15473;50.840;3.396;2022-10-31T05:07:10;6.67;;;4.80;;
28192;SDS011;15473;50.840;3.396;2022-10-31T05:09:40;7.97;;;4.15;;
28192;SDS011;15473;50.840;3.396;2022-10-31T05:12:10;7.03;;;4.35;;
28192;SDS011;15473;50.840;3.396;2022-10-31T05:14:40;8.10;;;4.10;;
28192;SDS011;15473;50.840;3.396;2022-10-31T05:17:17;4.12;;;3.22;;
28192;SDS011;15473;50.840;3.396;2022-10-31T05:19:53;5.28;;;3.83;;
28192;SDS011;15473;50.840;3.396;2022-10-31T05:22:30;14.40;;;4.05;;
28192;SDS011;15473;50.840;3.396;2022-10-31T05:25:00;7.08;;;4.50;;
28192;SDS011;15473;50.840;3.396;2022-10-31T05:27:32;8.33;;;3.90;;
28192;SDS011;15473;50.840;3.396;2022-10-31T05:30:02;7.15;;;4.17;;
28192;SDS011;15473;50.840;3.396;2022-10-31T05:32:39;6.30;;;3.62;;
28192;SDS011;15473;50.840;3.396;2022-10-31T05:35:12;10.48;;;4.87;;
28192;SDS011;15473;50.840;3.396;2022-10-31T05:37:51;10.75;;;5.15;;
28192;SDS011;15473;50.840;3.396;2022-10-31T05:40:23;7.60;;;4.85;;
28192;SDS011;15473;50.840;3.396;2022-10-31T05:43:01;9.13;;;5.03;;
28192;SDS011;15473;50.840;3.396;2022-10-31T05:45:37;12.13;;;6.22;;
28192;SDS011;15473;50.840;3.396;2022-10-31T05:48:13;11.85;;;5.53;;
28192;SDS011;15473;50.840;3.396;2022-10-31T05:50:43;15.95;;;7.40;;
28192;SDS011;15473;50.840;3.396;2022-10-31T05:53:14;17.42;;;9.05;;
28192;SDS011;15473;50.840;3.396;2022-10-31T05:55:50;22.67;;;9.80;;
28192;SDS011;15473;50.840;3.396;2022-10-31T05:58:21;26.02;;;11.55;;
28192;SDS011;15473;50.840;3.396;2022-10-31T06:00:52;23.98;;;11.93;;
28192;SDS011;15473;50.840;3.396;2022-10-31T06:03:26;25.50;;;11.48;;
28192;SDS011;15473;50.840;3.396;2022-10-31T06:06:03;23.30;;;10.38;;
28192;SDS011;15473;50.840;3.396;2022-10-31T06:08:40;17.77;;;8.38;;
28192;SDS011;15473;50.840;3.396;2022-10-31T06:11:10;9.90;;;5.80;;
28192;SDS011;15473;50.840;3.396;2022-10-31T06:13:40;13.28;;;5.65;;
28192;SDS011;15473;50.840;3.396;2022-10-31T06:16:12;10.23;;;5.17;;
28192;SDS011;15473;50.840;3.396;2022-10-31T06:18:49;12.37;;;6.25;;
28192;SDS011;15473;50.840;3.396;2022-10-31T06:21:19;13.05;;;5.40;;
28192;SDS011;15473;50.840;3.396;2022-10-31T06:23:50;12.20;;;5.37;;
28192;SDS011;15473;50.840;3.396;2022-10-31T06:26:22;15.80;;;5.42;;
28192;SDS011;15473;50.840;3.396;2022-10-31T06:28:52;15.45;;;5.35;;
28192;SDS011;15473;50.840;3.396;2022-10-31T06:31:28;14.55;;;5.45;;
28192;SDS011;15473;50.840;3.396;2022-10-31T06:33:58;9.03;;;5.03;;
28192;SDS011;15473;50.840;3.396;2022-10-31T06:36:32;12.30;;;5.87;;
28192;SDS011;15473;50.840;3.396;2022-10-31T06:39:06;7.58;;;5.40;;
28192;SDS011;15473;50.840;3.396;2022-10-31T06:41:43;9.43;;;5.55;;
28192;SDS011;15473;50.840;3.396;2022-10-31T06:44:27;10.03;;;4.87;;
28192;SDS011;15473;50.840;3.396;2022-10-31T06:46:57;8.35;;;5.50;;
28192;SDS011;15473;50.840;3.396;2022-10-31T06:49:34;8.73;;;5.20;;
28192;SDS011;15473;50.840;3.396;2022-10-31T06:52:11;10.20;;;5.62;;
28192;SDS011;15473;50.840;3.396;2022-10-31T06:54:41;9.20;;;5.75;;
28192;SDS011;15473;50.840;3.396;2022-10-31T06:57:11;13.58;;;5.62;;
28192;SDS011;15473;50.840;3.396;2022-10-31T06:59:41;7.80;;;5.33;;
28192;SDS011;15473;50.840;3.396;2022-10-31T07:02:18;12.25;;;5.50;;
28192;SDS011;15473;50.840;3.396;2022-10-31T07:04:52;9.05;;;4.70;;
28192;SDS011;15473;50.840;3.396;2022-10-31T07:07:30;10.35;;;5.08;;
28192;SDS011;15473;50.840;3.396;2022-10-31T07:10:00;13.48;;;5.35;;
28192;SDS011;15473;50.840;3.396;2022-10-31T07:12:36;9.75;;;5.03;;
28192;SDS011;15473;50.840;3.396;2022-10-31T07:15:19;9.80;;;5.05;;
28192;SDS011;15473;50.840;3.396;2022-10-31T07:17:49;7.25;;;5.10;;
28192;SDS011;15473;50.840;3.396;2022-10-31T07:20:23;9.13;;;5.30;;
28192;SDS011;15473;50.840;3.396;2022-10-31T07:22:57;6.67;;;4.90;;
28192;SDS011;15473;50.840;3.396;2022-10-31T07:25:32;10.60;;;6.30;;
28192;SDS011;15473;50.840;3.396;2022-10-31T07:28:04;8.03;;;5.37;;
28192;SDS011;15473;50.840;3.396;2022-10-31T07:30:35;6.83;;;5.45;;
28192;SDS011;15473;50.840;3.396;2022-10-31T07:33:06;8.88;;;5.15;;
28192;SDS011;15473;50.840;3.396;2022-10-31T07:35:38;11.25;;;6.42;;
28192;SDS011;15473;50.840;3.396;2022-10-31T07:38:09;10.00;;;5.72;;
28192;SDS011;15473;50.840;3.396;2022-10-31T07:40:42;10.60;;;5.75;;
28192;SDS011;15473;50.840;3.396;2022-10-31T07:43:14;9.85;;;5.78;;
28192;SDS011;15473;50.840;3.396;2022-10-31T07:45:44;12.80;;;5.62;;
28192;SDS011;15473;50.840;3.396;2022-10-31T07:48:22;9.83;;;5.53;;
28192;SDS011;15473;50.840;3.396;2022-10-31T07:50:58;11.55;;;5.80;;
28192;SDS011;15473;50.840;3.396;2022-10-31T07:53:28;10.58;;;6.15;;
28192;SDS011;15473;50.840;3.396;2022-10-31T07:56:00;11.35;;;5.85;;
28192;SDS011;15473;50.840;3.396;2022-10-31T07:58:32;11.25;;;5.30;;
28192;SDS011;15473;50.840;3.396;2022-10-31T08:01:02;13.00;;;6.60;;
28192;SDS011;15473;50.840;3.396;2022-10-31T08:03:32;10.15;;;6.65;;
28192;SDS011;15473;50.840;3.396;2022-10-31T08:06:09;8.68;;;6.10;;
28192;SDS011;15473;50.840;3.396;2022-10-31T08:08:45;10.75;;;5.83;;
28192;SDS011;15473;50.840;3.396;2022-10-31T08:11:15;13.03;;;5.92;;
28192;SDS011;15473;50.840;3.396;2022-10-31T08:13:46;8.70;;;5.80;;
28192;SDS011;15473;50.840;3.396;2022-10-31T08:16:16;14.03;;;7.47;;
28192;SDS011;15473;50.840;3.396;2022-10-31T08:18:49;10.70;;;6.50;;
28192;SDS011;15473;50.840;3.396;2022-10-31T08:21:25;13.48;;;6.22;;
28192;SDS011;15473;50.840;3.396;2022-10-31T08:23:55;16.82;;;7.03;;
28192;SDS011;15473;50.840;3.396;2022-10-31T08:26:29;16.12;;;6.87;;
28192;SDS011;15473;50.840;3.396;2022-10-31T08:29:03;12.40;;;6.90;;
28192;SDS011;15473;50.840;3.396;2022-10-31T08:31:38;15.58;;;6.50;;
28192;SDS011;15473;50.840;3.396;2022-10-31T08:34:08;10.80;;;6.72;;
28192;SDS011;15473;50.840;3.396;2022-10-31T08:36:38;11.08;;;6.58;;
28192;SDS011;15473;50.840;3.396;2022-10-31T08:39:14;13.95;;;7.00;;
28192;SDS011;15473;50.840;3.396;2022-10-31T08:41:44;14.07;;;6.62;;
28192;SDS011;15473;50.840;3.396;2022-10-31T08:44:16;18.67;;;7.17;;
28192;SDS011;15473;50.840;3.396;2022-10-31T08:46:46;10.98;;;5.75;;
28192;SDS011;15473;50.840;3.396;2022-10-31T08:49:16;10.63;;;6.47;;
28192;SDS011;15473;50.840;3.396;2022-10-31T08:51:52;9.25;;;6.15;;
28192;SDS011;15473;50.840;3.396;2022-10-31T08:54:22;9.15;;;5.95;;
28192;SDS011;15473;50.840;3.396;2022-10-31T08:56:55;11.95;;;6.65;;
28192;SDS011;15473;50.840;3.396;2022-10-31T08:59:33;12.25;;;6.12;;
28192;SDS011;15473;50.840;3.396;2022-10-31T09:02:04;11.97;;;7.00;;
28192;SDS011;15473;50.840;3.396;2022-10-31T09:04:34;15.10;;;6.40;;
28192;SDS011;15473;50.840;3.396;2022-10-31T09:07:04;10.23;;;6.58;;
28192;SDS011;15473;50.840;3.396;2022-10-31T09:09:34;10.95;;;6.87;;
28192;SDS011;15473;50.840;3.396;2022-10-31T09:12:04;15.32;;;7.92;;
28192;SDS011;15473;50.840;3.396;2022-10-31T09:14:34;10.70;;;7.62;;
28192;SDS011;15473;50.840;3.396;2022-10-31T09:17:04;12.47;;;7.75;;
28192;SDS011;15473;50.840;3.396;2022-10-31T09:19:34;11.63;;;6.80;;
28192;SDS011;15473;50.840;3.396;2022-10-31T09:22:05;12.05;;;7.03;;
28192;SDS011;15473;50.840;3.396;2022-10-31T09:24:35;11.93;;;6.75;;
28192;SDS011;15473;50.840;3.396;2022-10-31T09:27:05;11.93;;;6.50;;
28192;SDS011;15473;50.840;3.396;2022-10-31T09:29:36;17.57;;;8.73;;
28192;SDS011;15473;50.840;3.396;2022-10-31T09:32:07;19.70;;;9.03;;
28192;SDS011;15473;50.840;3.396;2022-10-31T09:34:39;14.10;;;8.25;;
28192;SDS011;15473;50.840;3.396;2022-10-31T09:37:09;13.15;;;8.18;;
28192;SDS011;15473;50.840;3.396;2022-10-31T09:39:40;14.87;;;7.62;;
28192;SDS011;15473;50.840;3.396;2022-10-31T09:45:03;12.13;;;6.80;;
28192;SDS011;15473;50.840;3.396;2022-10-31T09:47:40;11.20;;;6.40;;
28192;SDS011;15473;50.840;3.396;2022-10-31T09:50:29;11.07;;;7.33;;
28192;SDS011;15473;50.840;3.396;2022-10-31T09:55:39;10.03;;;7.03;;
28192;SDS011;15473;50.840;3.396;2022-10-31T09:58:14;15.50;;;6.47;;
28192;SDS011;15473;50.840;3.396;2022-10-31T10:00:47;12.25;;;6.17;;
28192;SDS011;15473;50.840;3.396;2022-10-31T10:05:54;13.65;;;6.67;;
28192;SDS011;15473;50.840;3.396;2022-10-31T10:08:30;10.68;;;6.70;;
28192;SDS011;15473;50.840;3.396;2022-10-31T10:22:14;10.65;;;5.60;;
28192;SDS011;15473;50.840;3.396;2022-10-31T10:25:17;11.00;;;6.72;;
28192;SDS011;15473;50.840;3.396;2022-10-31T10:30:54;10.03;;;5.67;;
28192;SDS011;15473;50.840;3.396;2022-10-31T10:33:40;9.78;;;5.70;;
28192;SDS011;15473;50.840;3.396;2022-10-31T10:36:15;16.15;;;6.55;;
28192;SDS011;15473;50.840;3.396;2022-10-31T10:39:04;11.33;;;5.12;;
28192;SDS011;15473;50.840;3.396;2022-10-31T10:44:31;13.65;;;5.30;;
28192;SDS011;15473;50.840;3.396;2022-10-31T10:47:27;9.23;;;5.45;;
28192;SDS011;15473;50.840;3.396;2022-10-31T10:50:15;7.58;;;4.42;;
28192;SDS011;15473;50.840;3.396;2022-10-31T10:53:08;9.53;;;4.67;;
28192;SDS011;15473;50.840;3.396;2022-10-31T10:55:59;10.00;;;5.30;;
28192;SDS011;15473;50.840;3.396;2022-10-31T10:58:37;9.33;;;5.12;;
28192;SDS011;15473;50.840;3.396;2022-10-31T11:01:11;14.20;;;5.28;;
28192;SDS011;15473;50.840;3.396;2022-10-31T11:03:42;8.65;;;4.80;;
28192;SDS011;15473;50.840;3.396;2022-10-31T11:06:22;11.45;;;5.80;;
28192;SDS011;15473;50.840;3.396;2022-10-31T11:08:52;10.28;;;4.45;;
28192;SDS011;15473;50.840;3.396;2022-10-31T11:11:29;8.78;;;4.65;;
28192;SDS011;15473;50.840;3.396;2022-10-31T11:14:00;10.85;;;4.78;;
28192;SDS011;15473;50.840;3.396;2022-10-31T11:16:43;8.10;;;4.78;;
28192;SDS011;15473;50.840;3.396;2022-10-31T11:19:37;8.75;;;4.45;;
28192;SDS011;15473;50.840;3.396;2022-10-31T11:22:08;11.25;;;4.62;;
28192;SDS011;15473;50.840;3.396;2022-10-31T11:25:24;8.75;;;5.20;;
28192;SDS011;15473;50.840;3.396;2022-10-31T11:28:03;9.80;;;5.10;;
28192;SDS011;15473;50.840;3.396;2022-10-31T11:30:41;12.35;;;6.05;;
28192;SDS011;15473;50.840;3.396;2022-10-31T11:36:23;10.23;;;5.62;;
28192;SDS011;15473;50.840;3.396;2022-10-31T11:38:56;10.85;;;5.25;;
28192;SDS011;15473;50.840;3.396;2022-10-31T11:41:29;7.20;;;4.22;;
28192;SDS011;15473;50.840;3.396;2022-10-31T11:44:14;11.25;;;5.05;;
28192;SDS011;15473;50.840;3.396;2022-10-31T11:46:50;14.50;;;5.58;;
28192;SDS011;15473;50.840;3.396;2022-10-31T11:49:40;10.48;;;4.97;;
28192;SDS011;15473;50.840;3.396;2022-10-31T11:52:15;11.30;;;4.80;;
28192;SDS011;15473;50.840;3.396;2022-10-31T11:57:47;10.93;;;5.75;;
28192;SDS011;15473;50.840;3.396;2022-10-31T12:03:18;10.72;;;4.28;;
28192;SDS011;15473;50.840;3.396;2022-10-31T12:06:13;6.55;;;4.17;;
28192;SDS011;15473;50.840;3.396;2022-10-31T12:08:54;6.83;;;4.17;;
28192;SDS011;15473;50.840;3.396;2022-10-31T12:14:20;8.78;;;4.78;;
28192;SDS011;15473;50.840;3.396;2022-10-31T12:20:03;11.65;;;5.08;;
28192;SDS011;15473;50.840;3.396;2022-10-31T12:25:39;6.60;;;4.00;;
28192;SDS011;15473;50.840;3.396;2022-10-31T12:34:16;16.87;;;6.50;;
28192;SDS011;15473;50.840;3.396;2022-10-31T12:39:40;13.45;;;6.17;;
28192;SDS011;15473;50.840;3.396;2022-10-31T12:42:49;11.43;;;5.10;;
28192;SDS011;15473;50.840;3.396;2022-10-31T12:45:34;7.90;;;5.70;;
28192;SDS011;15473;50.840;3.396;2022-10-31T12:51:29;17.45;;;7.10;;
28192;SDS011;15473;50.840;3.396;2022-10-31T12:54:11;10.82;;;5.62;;
28192;SDS011;15473;50.840;3.396;2022-10-31T12:59:42;10.75;;;6.00;;
28192;SDS011;15473;50.840;3.396;2022-10-31T13:02:26;11.75;;;5.90;;
28192;SDS011;15473;50.840;3.396;2022-10-31T13:05:01;14.47;;;5.80;;
28192;SDS011;15473;50.840;3.396;2022-10-31T13:10:31;15.30;;;7.15;;
28192;SDS011;15473;50.840;3.396;2022-10-31T13:13:11;16.90;;;5.67;;
28192;SDS011;15473;50.840;3.396;2022-10-31T13:15:54;11.57;;;5.87;;
28192;SDS011;15473;50.840;3.396;2022-10-31T13:18:25;12.07;;;6.17;;
28192;SDS011;15473;50.840;3.396;2022-10-31T13:21:33;11.33;;;6.78;;
28192;SDS011;15473;50.840;3.396;2022-10-31T13:24:39;9.05;;;5.20;;
28192;SDS011;15473;50.840;3.396;2022-10-31T13:27:17;10.72;;;6.90;;
28192;SDS011;15473;50.840;3.396;2022-10-31T13:30:00;15.35;;;6.60;;
28192;SDS011;15473;50.840;3.396;2022-10-31T13:32:41;11.40;;;6.33;;
28192;SDS011;15473;50.840;3.396;2022-10-31T13:38:15;16.07;;;7.15;;
28192;SDS011;15473;50.840;3.396;2022-10-31T13:40:59;11.48;;;6.03;;
28192;SDS011;15473;50.840;3.396;2022-10-31T13:49:36;13.72;;;6.55;;
28192;SDS011;15473;50.840;3.396;2022-10-31T13:54:54;18.75;;;8.08;;
28192;SDS011;15473;50.840;3.396;2022-10-31T14:00:24;17.23;;;7.83;;
28192;SDS011;15473;50.840;3.396;2022-10-31T14:03:18;11.55;;;7.08;;
28192;SDS011;15473;50.840;3.396;2022-10-31T14:05:52;16.05;;;7.50;;
28192;SDS011;15473;50.840;3.396;2022-10-31T14:08:23;11.75;;;6.37;;
28192;SDS011;15473;50.840;3.396;2022-10-31T14:10:54;8.93;;;6.42;;
28192;SDS011;15473;50.840;3.396;2022-10-31T14:13:36;14.25;;;7.40;;
28192;SDS011;15473;50.840;3.396;2022-10-31T14:16:17;15.90;;;7.20;;
28192;SDS011;15473;50.840;3.396;2022-10-31T14:19:04;19.32;;;7.92;;
28192;SDS011;15473;50.840;3.396;2022-10-31T14:21:56;16.50;;;8.48;;
28192;SDS011;15473;50.840;3.396;2022-10-31T14:24:34;17.67;;;8.28;;
28192;SDS011;15473;50.840;3.396;2022-10-31T14:30:16;24.12;;;10.15;;
28192;SDS011;15473;50.840;3.396;2022-10-31T14:33:00;15.45;;;8.05;;
28192;SDS011;15473;50.840;3.396;2022-10-31T14:36:22;18.12;;;8.58;;
28192;SDS011;15473;50.840;3.396;2022-10-31T14:38:18;15.23;;;8.58;;
28192;SDS011;15473;50.840;3.396;2022-10-31T14:53:47;23.22;;;9.28;;
28192;SDS011;15473;50.840;3.396;2022-10-31T14:56:32;24.95;;;9.43;;
28192;SDS011;15473;50.840;3.396;2022-10-31T14:59:15;13.90;;;8.50;;
28192;SDS011;15473;50.840;3.396;2022-10-31T15:01:56;14.47;;;9.35;;
28192;SDS011;15473;50.840;3.396;2022-10-31T15:04:41;21.07;;;9.65;;
28192;SDS011;15473;50.840;3.396;2022-10-31T15:07:18;11.88;;;7.97;;
28192;SDS011;15473;50.840;3.396;2022-10-31T15:10:00;20.45;;;9.63;;
28192;SDS011;15473;50.840;3.396;2022-10-31T15:15:27;20.25;;;8.80;;
28192;SDS011;15473;50.840;3.396;2022-10-31T15:17:59;24.10;;;10.05;;
28192;SDS011;15473;50.840;3.396;2022-10-31T15:20:30;18.32;;;9.30;;
28192;SDS011;15473;50.840;3.396;2022-10-31T15:23:10;13.62;;;7.47;;
28192;SDS011;15473;50.840;3.396;2022-10-31T15:25:43;11.00;;;7.37;;
28192;SDS011;15473;50.840;3.396;2022-10-31T15:30:59;15.98;;;7.95;;
28192;SDS011;15473;50.840;3.396;2022-10-31T15:33:27;15.10;;;8.28;;
28192;SDS011;15473;50.840;3.396;2022-10-31T15:35:59;17.35;;;9.00;;
28192;SDS011;15473;50.840;3.396;2022-10-31T15:38:37;18.17;;;7.67;;
28192;SDS011;15473;50.840;3.396;2022-10-31T15:41:19;14.85;;;7.53;;
28192;SDS011;15473;50.840;3.396;2022-10-31T15:44:10;18.05;;;8.63;;
28192;SDS011;15473;50.840;3.396;2022-10-31T15:46:33;17.20;;;8.33;;
28192;SDS011;15473;50.840;3.396;2022-10-31T15:49:12;12.58;;;7.85;;
28192;SDS011;15473;50.840;3.396;2022-10-31T15:51:42;17.12;;;7.60;;
28192;SDS011;15473;50.840;3.396;2022-10-31T15:54:19;19.35;;;7.90;;
28192;SDS011;15473;50.840;3.396;2022-10-31T15:56:53;14.50;;;8.08;;
28192;SDS011;15473;50.840;3.396;2022-10-31T15:59:26;18.90;;;8.78;;
28192;SDS011;15473;50.840;3.396;2022-10-31T16:02:08;16.73;;;7.62;;
28192;SDS011;15473;50.840;3.396;2022-10-31T16:04:48;14.10;;;7.28;;
28192;SDS011;15473;50.840;3.396;2022-10-31T16:07:20;18.40;;;7.83;;
28192;SDS011;15473;50.840;3.396;2022-10-31T16:12:33;16.17;;;7.33;;
28192;SDS011;15473;50.840;3.396;2022-10-31T16:15:00;13.38;;;7.65;;
28192;SDS011;15473;50.840;3.396;2022-10-31T16:17:33;20.20;;;6.53;;
28192;SDS011;15473;50.840;3.396;2022-10-31T16:20:04;14.78;;;6.65;;
28192;SDS011;15473;50.840;3.396;2022-10-31T16:22:36;15.03;;;6.65;;
28192;SDS011;15473;50.840;3.396;2022-10-31T16:25:14;9.70;;;5.80;;
28192;SDS011;15473;50.840;3.396;2022-10-31T16:27:50;17.00;;;5.25;;
28192;SDS011;15473;50.840;3.396;2022-10-31T16:30:35;12.13;;;5.83;;
28192;SDS011;15473;50.840;3.396;2022-10-31T16:39:00;15.90;;;5.92;;
28192;SDS011;15473;50.840;3.396;2022-10-31T16:41:30;10.68;;;5.53;;
28192;SDS011;15473;50.840;3.396;2022-10-31T16:44:03;13.65;;;5.85;;
28192;SDS011;15473;50.840;3.396;2022-10-31T16:46:36;13.85;;;6.00;;
28192;SDS011;15473;50.840;3.396;2022-10-31T16:49:08;9.73;;;5.60;;
28192;SDS011;15473;50.840;3.396;2022-10-31T16:51:38;9.88;;;5.75;;
28192;SDS011;15473;50.840;3.396;2022-10-31T16:54:15;11.68;;;5.62;;
28192;SDS011;15473;50.840;3.396;2022-10-31T16:56:45;15.45;;;6.15;;
28192;SDS011;15473;50.840;3.396;2022-10-31T16:59:15;13.53;;;5.60;;
28192;SDS011;15473;50.840;3.396;2022-10-31T17:01:47;15.43;;;6.08;;
28192;SDS011;15473;50.840;3.396;2022-10-31T17:04:18;22.40;;;6.53;;
28192;SDS011;15473;50.840;3.396;2022-10-31T17:06:54;13.28;;;6.10;;
28192;SDS011;15473;50.840;3.396;2022-10-31T17:09:24;13.38;;;6.60;;
28192;SDS011;15473;50.840;3.396;2022-10-31T17:12:00;10.50;;;6.37;;
28192;SDS011;15473;50.840;3.396;2022-10-31T17:14:31;13.10;;;6.03;;
28192;SDS011;15473;50.840;3.396;2022-10-31T17:17:01;15.28;;;6.33;;
28192;SDS011;15473;50.840;3.396;2022-10-31T17:19:32;12.73;;;6.20;;
28192;SDS011;15473;50.840;3.396;2022-10-31T17:22:02;17.67;;;8.18;;
28192;SDS011;15473;50.840;3.396;2022-10-31T17:24:32;14.63;;;6.08;;
28192;SDS011;15473;50.840;3.396;2022-10-31T17:27:09;14.95;;;6.58;;
28192;SDS011;15473;50.840;3.396;2022-10-31T17:29:45;12.40;;;6.92;;
28192;SDS011;15473;50.840;3.396;2022-10-31T17:32:22;17.85;;;6.20;;
28192;SDS011;15473;50.840;3.396;2022-10-31T17:34:53;12.37;;;6.25;;
28192;SDS011;15473;50.840;3.396;2022-10-31T17:37:29;11.15;;;6.70;;
28192;SDS011;15473;50.840;3.396;2022-10-31T17:40:01;18.42;;;6.83;;
28192;SDS011;15473;50.840;3.396;2022-10-31T17:42:31;11.08;;;5.60;;
28192;SDS011;15473;50.840;3.396;2022-10-31T17:47:57;9.98;;;6.30;;
28192;SDS011;15473;50.840;3.396;2022-10-31T17:50:28;15.93;;;6.17;;
28192;SDS011;15473;50.840;3.396;2022-10-31T17:52:58;8.28;;;5.50;;
28192;SDS011;15473;50.840;3.396;2022-10-31T17:55:30;17.07;;;6.42;;
28192;SDS011;15473;50.840;3.396;2022-10-31T17:58:04;11.33;;;6.67;;
28192;SDS011;15473;50.840;3.396;2022-10-31T18:00:55;12.65;;;5.80;;
28192;SDS011;15473;50.840;3.396;2022-10-31T18:03:26;11.18;;;6.28;;
28192;SDS011;15473;50.840;3.396;2022-10-31T18:05:58;11.55;;;5.78;;
28192;SDS011;15473;50.840;3.396;2022-10-31T18:08:30;14.70;;;6.28;;